sensor_id;sensor_type;location;lat;lon;timestamp;temperature;humidity
4820;DHT22;2424;49.696;6.630;2022-10-31T00:00:28;11.20;99.90
4820;DHT22;2424;49.696;6.630;2022-10-31T00:05:50;11.20;99.90
4820;DHT22;2424;49.696;6.630;2022-10-31T00:11:14;11.10;99.90
4820;DHT22;2424;49.696;6.630;2022-10-31T00:16:36;11.10;99.90
4820;DHT22;2424;49.696;6.630;2022-10-31T00:21:58;11.00;99.90
4820;DHT22;2424;49.696;6.630;2022-10-31T00:27:21;11.00;99.90
4820;DHT22;2424;49.696;6.630;2022-10-31T00:32:43;11.00;99.90
4820;DHT22;2424;49.696;6.630;2022-10-31T00:38:05;11.00;99.90
4820;DHT22;2424;49.696;6.630;2022-10-31T00:43:31;11.00;99.90
4820;DHT22;2424;49.696;6.630;2022-10-31T00:48:53;11.00;99.90
4820;DHT22;2424;49.696;6.630;2022-10-31T00:54:15;10.80;99.90
4820;DHT22;2424;49.696;6.630;2022-10-31T00:59:39;10.90;99.90
4820;DHT22;2424;49.696;6.630;2022-10-31T01:05:01;10.90;99.90
4820;DHT22;2424;49.696;6.630;2022-10-31T01:10:22;10.90;99.90
4820;DHT22;2424;49.696;6.630;2022-10-31T01:15:53;10.90;99.90
4820;DHT22;2424;49.696;6.630;2022-10-31T01:21:17;11.00;99.90
4820;DHT22;2424;49.696;6.630;2022-10-31T01:26:40;10.90;99.90
4820;DHT22;2424;49.696;6.630;2022-10-31T01:32:03;10.90;99.90
4820;DHT22;2424;49.696;6.630;2022-10-31T01:37:26;10.90;99.90
4820;DHT22;2424;49.696;6.630;2022-10-31T01:42:47;10.90;99.90
4820;DHT22;2424;49.696;6.630;2022-10-31T01:48:15;10.90;99.90
4820;DHT22;2424;49.696;6.630;2022-10-31T01:53:37;10.90;99.90
4820;DHT22;2424;49.696;6.630;2022-10-31T01:59:01;10.90;99.90
4820;DHT22;2424;49.696;6.630;2022-10-31T02:04:25;10.80;99.90
4820;DHT22;2424;49.696;6.630;2022-10-31T02:09:48;10.80;99.90
4820;DHT22;2424;49.696;6.630;2022-10-31T02:15:11;10.80;99.90
4820;DHT22;2424;49.696;6.630;2022-10-31T02:20:45;10.80;99.90
4820;DHT22;2424;49.696;6.630;2022-10-31T02:32:13;10.80;99.90
4820;DHT22;2424;49.696;6.630;2022-10-31T02:37:46;10.80;99.90
4820;DHT22;2424;49.696;6.630;2022-10-31T02:43:13;10.70;99.90
4820;DHT22;2424;49.696;6.630;2022-10-31T02:48:40;10.80;99.90
4820;DHT22;2424;49.696;6.630;2022-10-31T02:54:04;10.70;99.90
4820;DHT22;2424;49.696;6.630;2022-10-31T02:59:27;10.70;99.90
4820;DHT22;2424;49.696;6.630;2022-10-31T03:05:15;10.70;99.90
4820;DHT22;2424;49.696;6.630;2022-10-31T03:10:44;10.70;99.90
4820;DHT22;2424;49.696;6.630;2022-10-31T03:16:11;10.70;99.90
4820;DHT22;2424;49.696;6.630;2022-10-31T03:21:44;10.60;99.90
4820;DHT22;2424;49.696;6.630;2022-10-31T03:27:12;10.60;99.90
4820;DHT22;2424;49.696;6.630;2022-10-31T03:32:36;10.60;99.90
4820;DHT22;2424;49.696;6.630;2022-10-31T03:38:02;10.60;99.90
4820;DHT22;2424;49.696;6.630;2022-10-31T03:43:28;10.60;99.90
4820;DHT22;2424;49.696;6.630;2022-10-31T03:48:51;10.50;99.90
4820;DHT22;2424;49.696;6.630;2022-10-31T03:54:22;10.60;99.90
4820;DHT22;2424;49.696;6.630;2022-10-31T03:59:48;10.50;99.90
4820;DHT22;2424;49.696;6.630;2022-10-31T04:05:13;10.50;99.90
4820;DHT22;2424;49.696;6.630;2022-10-31T04:10:39;10.40;99.90
4820;DHT22;2424;49.696;6.630;2022-10-31T04:16:02;10.30;99.90
4820;DHT22;2424;49.696;6.630;2022-10-31T04:21:27;10.30;99.90
4820;DHT22;2424;49.696;6.630;2022-10-31T04:26:51;10.20;99.90
4820;DHT22;2424;49.696;6.630;2022-10-31T04:32:13;10.20;99.90
4820;DHT22;2424;49.696;6.630;2022-10-31T04:37:35;10.20;99.90
4820;DHT22;2424;49.696;6.630;2022-10-31T04:42:58;10.30;99.90
4820;DHT22;2424;49.696;6.630;2022-10-31T04:48:20;10.20;99.90
4820;DHT22;2424;49.696;6.630;2022-10-31T04:53:42;10.10;99.90
4820;DHT22;2424;49.696;6.630;2022-10-31T04:59:05;10.10;99.90
4820;DHT22;2424;49.696;6.630;2022-10-31T05:04:27;10.00;99.90
4820;DHT22;2424;49.696;6.630;2022-10-31T05:09:49;10.00;99.90
4820;DHT22;2424;49.696;6.630;2022-10-31T05:15:13;10.00;99.90
4820;DHT22;2424;49.696;6.630;2022-10-31T05:20:35;10.00;99.90
4820;DHT22;2424;49.696;6.630;2022-10-31T05:25:57;10.10;99.90
4820;DHT22;2424;49.696;6.630;2022-10-31T05:31:20;10.10;99.90
4820;DHT22;2424;49.696;6.630;2022-10-31T05:36:42;10.10;99.90
4820;DHT22;2424;49.696;6.630;2022-10-31T05:42:04;10.10;99.90
4820;DHT22;2424;49.696;6.630;2022-10-31T05:47:30;10.10;99.90
4820;DHT22;2424;49.696;6.630;2022-10-31T05:52:56;10.10;99.90
4820;DHT22;2424;49.696;6.630;2022-10-31T05:58:18;10.00;99.90
4820;DHT22;2424;49.696;6.630;2022-10-31T06:03:41;10.00;99.90
4820;DHT22;2424;49.696;6.630;2022-10-31T06:09:03;10.00;99.90
4820;DHT22;2424;49.696;6.630;2022-10-31T06:14:25;10.00;99.90
4820;DHT22;2424;49.696;6.630;2022-10-31T06:19:49;10.00;99.90
4820;DHT22;2424;49.696;6.630;2022-10-31T06:25:11;10.00;99.90
4820;DHT22;2424;49.696;6.630;2022-10-31T06:30:33;10.00;99.90
4820;DHT22;2424;49.696;6.630;2022-10-31T06:35:56;9.90;99.90
4820;DHT22;2424;49.696;6.630;2022-10-31T06:41:18;10.00;99.90
4820;DHT22;2424;49.696;6.630;2022-10-31T06:46:40;9.90;99.90
4820;DHT22;2424;49.696;6.630;2022-10-31T06:52:05;9.90;99.90
4820;DHT22;2424;49.696;6.630;2022-10-31T06:57:27;9.90;99.90
4820;DHT22;2424;49.696;6.630;2022-10-31T07:02:53;9.90;99.90
4820;DHT22;2424;49.696;6.630;2022-10-31T07:08:17;9.90;99.90
4820;DHT22;2424;49.696;6.630;2022-10-31T07:13:41;10.00;99.90
4820;DHT22;2424;49.696;6.630;2022-10-31T07:19:03;10.00;99.90
4820;DHT22;2424;49.696;6.630;2022-10-31T07:24:26;10.10;99.90
4820;DHT22;2424;49.696;6.630;2022-10-31T07:29:48;10.10;99.90
4820;DHT22;2424;49.696;6.630;2022-10-31T07:35:11;10.20;99.90
4820;DHT22;2424;49.696;6.630;2022-10-31T07:40:35;10.20;99.90
4820;DHT22;2424;49.696;6.630;2022-10-31T07:45:57;10.30;99.90
4820;DHT22;2424;49.696;6.630;2022-10-31T07:51:19;10.40;99.90
4820;DHT22;2424;49.696;6.630;2022-10-31T07:56:45;10.40;99.90
4820;DHT22;2424;49.696;6.630;2022-10-31T08:02:08;10.40;99.90
4820;DHT22;2424;49.696;6.630;2022-10-31T08:07:35;10.50;99.90
4820;DHT22;2424;49.696;6.630;2022-10-31T08:13:02;10.50;99.90
4820;DHT22;2424;49.696;6.630;2022-10-31T08:18:24;10.40;99.90
4820;DHT22;2424;49.696;6.630;2022-10-31T08:23:46;10.40;99.90
4820;DHT22;2424;49.696;6.630;2022-10-31T08:29:10;10.50;99.90
4820;DHT22;2424;49.696;6.630;2022-10-31T08:34:32;10.60;99.90
4820;DHT22;2424;49.696;6.630;2022-10-31T08:39:53;10.70;99.90
4820;DHT22;2424;49.696;6.630;2022-10-31T08:45:17;10.70;99.90
4820;DHT22;2424;49.696;6.630;2022-10-31T08:50:39;10.80;99.90
4820;DHT22;2424;49.696;6.630;2022-10-31T08:56:02;10.90;99.90
4820;DHT22;2424;49.696;6.630;2022-10-31T09:01:25;10.90;99.90
4820;DHT22;2424;49.696;6.630;2022-10-31T09:06:47;11.10;99.90
4820;DHT22;2424;49.696;6.630;2022-10-31T09:12:09;11.10;99.90
4820;DHT22;2424;49.696;6.630;2022-10-31T09:17:32;11.10;99.90
4820;DHT22;2424;49.696;6.630;2022-10-31T09:22:59;11.20;99.90
4820;DHT22;2424;49.696;6.630;2022-10-31T09:28:22;11.30;99.90
4820;DHT22;2424;49.696;6.630;2022-10-31T09:33:46;11.40;99.90
4820;DHT22;2424;49.696;6.630;2022-10-31T09:39:08;11.40;99.90
4820;DHT22;2424;49.696;6.630;2022-10-31T09:44:38;11.40;99.90
4820;DHT22;2424;49.696;6.630;2022-10-31T09:50:14;11.50;99.90
4820;DHT22;2424;49.696;6.630;2022-10-31T09:55:40;11.50;99.90
4820;DHT22;2424;49.696;6.630;2022-10-31T10:01:03;11.60;99.90
4820;DHT22;2424;49.696;6.630;2022-10-31T10:06:29;11.70;99.90
4820;DHT22;2424;49.696;6.630;2022-10-31T10:11:58;11.80;99.90
4820;DHT22;2424;49.696;6.630;2022-10-31T10:17:32;11.90;99.90
4820;DHT22;2424;49.696;6.630;2022-10-31T10:23:10;12.00;99.90
4820;DHT22;2424;49.696;6.630;2022-10-31T10:28:38;12.00;99.90
4820;DHT22;2424;49.696;6.630;2022-10-31T10:34:08;12.10;99.90
4820;DHT22;2424;49.696;6.630;2022-10-31T11:27:24;13.10;99.90
4820;DHT22;2424;49.696;6.630;2022-10-31T11:32:48;13.20;99.90
4820;DHT22;2424;49.696;6.630;2022-10-31T11:38:17;13.30;99.90
4820;DHT22;2424;49.696;6.630;2022-10-31T11:43:46;13.40;99.90
4820;DHT22;2424;49.696;6.630;2022-10-31T11:49:15;13.50;99.90
4820;DHT22;2424;49.696;6.630;2022-10-31T11:54:42;13.50;99.90
4820;DHT22;2424;49.696;6.630;2022-10-31T12:00:21;13.60;99.90
4820;DHT22;2424;49.696;6.630;2022-10-31T12:05:45;13.70;99.90
4820;DHT22;2424;49.696;6.630;2022-10-31T12:11:18;13.70;99.90
4820;DHT22;2424;49.696;6.630;2022-10-31T12:16:52;13.90;99.90
4820;DHT22;2424;49.696;6.630;2022-10-31T12:22:21;13.90;99.90
4820;DHT22;2424;49.696;6.630;2022-10-31T12:28:03;14.10;99.90
4820;DHT22;2424;49.696;6.630;2022-10-31T12:33:42;14.20;99.90
4820;DHT22;2424;49.696;6.630;2022-10-31T12:39:32;14.30;99.90
4820;DHT22;2424;49.696;6.630;2022-10-31T12:45:13;14.30;99.90
4820;DHT22;2424;49.696;6.630;2022-10-31T12:50:51;14.40;99.90
4820;DHT22;2424;49.696;6.630;2022-10-31T12:56:30;14.50;99.90
4820;DHT22;2424;49.696;6.630;2022-10-31T13:02:00;14.60;99.90
4820;DHT22;2424;49.696;6.630;2022-10-31T13:07:28;15.10;99.90
4820;DHT22;2424;49.696;6.630;2022-10-31T13:12:57;16.00;99.90
4820;DHT22;2424;49.696;6.630;2022-10-31T13:18:26;16.30;99.90
4820;DHT22;2424;49.696;6.630;2022-10-31T13:23:51;16.40;99.90
4820;DHT22;2424;49.696;6.630;2022-10-31T13:29:19;17.20;99.90
4820;DHT22;2424;49.696;6.630;2022-10-31T13:34:46;17.60;99.90
4820;DHT22;2424;49.696;6.630;2022-10-31T13:40:18;18.10;99.90
4820;DHT22;2424;49.696;6.630;2022-10-31T13:45:50;18.10;99.90
4820;DHT22;2424;49.696;6.630;2022-10-31T13:51:13;18.20;99.90
4820;DHT22;2424;49.696;6.630;2022-10-31T13:56:48;18.30;99.90
4820;DHT22;2424;49.696;6.630;2022-10-31T14:02:15;18.20;99.90
4820;DHT22;2424;49.696;6.630;2022-10-31T14:07:43;18.10;99.90
4820;DHT22;2424;49.696;6.630;2022-10-31T14:13:13;17.90;99.90
4820;DHT22;2424;49.696;6.630;2022-10-31T14:18:37;18.10;99.90
4820;DHT22;2424;49.696;6.630;2022-10-31T14:24:01;18.50;99.90
4820;DHT22;2424;49.696;6.630;2022-10-31T14:29:27;18.50;99.90
4820;DHT22;2424;49.696;6.630;2022-10-31T14:34:54;18.90;99.90
4820;DHT22;2424;49.696;6.630;2022-10-31T14:40:24;19.20;99.90
4820;DHT22;2424;49.696;6.630;2022-10-31T14:45:54;19.40;99.90
4820;DHT22;2424;49.696;6.630;2022-10-31T14:51:21;19.30;99.90
4820;DHT22;2424;49.696;6.630;2022-10-31T14:56:55;19.20;99.90
4820;DHT22;2424;49.696;6.630;2022-10-31T15:02:24;18.90;99.90
4820;DHT22;2424;49.696;6.630;2022-10-31T15:07:51;18.80;99.90
4820;DHT22;2424;49.696;6.630;2022-10-31T15:13:18;19.00;99.90
4820;DHT22;2424;49.696;6.630;2022-10-31T15:18:52;18.80;99.90
4820;DHT22;2424;49.696;6.630;2022-10-31T15:24:15;18.60;99.90
4820;DHT22;2424;49.696;6.630;2022-10-31T15:29:50;18.30;99.90
4820;DHT22;2424;49.696;6.630;2022-10-31T15:35:22;18.30;99.90
4820;DHT22;2424;49.696;6.630;2022-10-31T15:40:52;18.10;99.90
4820;DHT22;2424;49.696;6.630;2022-10-31T15:46:15;18.00;99.90
4820;DHT22;2424;49.696;6.630;2022-10-31T15:51:39;17.80;99.90
4820;DHT22;2424;49.696;6.630;2022-10-31T15:57:01;17.50;99.90
4820;DHT22;2424;49.696;6.630;2022-10-31T16:02:26;17.30;99.90
4820;DHT22;2424;49.696;6.630;2022-10-31T16:07:50;17.10;99.90
4820;DHT22;2424;49.696;6.630;2022-10-31T16:13:13;16.80;99.90
4820;DHT22;2424;49.696;6.630;2022-10-31T16:18:36;16.70;99.90
4820;DHT22;2424;49.696;6.630;2022-10-31T16:24:02;16.70;99.90
4820;DHT22;2424;49.696;6.630;2022-10-31T16:29:28;16.70;99.90
4820;DHT22;2424;49.696;6.630;2022-10-31T16:34:58;16.60;99.90
4820;DHT22;2424;49.696;6.630;2022-10-31T16:40:21;16.40;99.90
4820;DHT22;2424;49.696;6.630;2022-10-31T16:45:46;16.40;99.90
4820;DHT22;2424;49.696;6.630;2022-10-31T16:51:08;16.40;99.90
4820;DHT22;2424;49.696;6.630;2022-10-31T16:56:33;16.60;99.90
4820;DHT22;2424;49.696;6.630;2022-10-31T17:01:57;16.40;99.90
4820;DHT22;2424;49.696;6.630;2022-10-31T17:07:20;16.40;99.90
4820;DHT22;2424;49.696;6.630;2022-10-31T17:12:45;16.50;99.90
4820;DHT22;2424;49.696;6.630;2022-10-31T17:18:10;16.50;99.90
4820;DHT22;2424;49.696;6.630;2022-10-31T17:23:34;16.60;99.90
4820;DHT22;2424;49.696;6.630;2022-10-31T17:28:59;16.60;99.90
4820;DHT22;2424;49.696;6.630;2022-10-31T17:34:23;16.40;99.90
4820;DHT22;2424;49.696;6.630;2022-10-31T17:39:45;16.40;99.90
4820;DHT22;2424;49.696;6.630;2022-10-31T17:45:09;16.50;99.90
4820;DHT22;2424;49.696;6.630;2022-10-31T17:50:32;16.70;99.90
4820;DHT22;2424;49.696;6.630;2022-10-31T17:55:59;16.60;99.90
4820;DHT22;2424;49.696;6.630;2022-10-31T18:01:23;16.60;99.90
4820;DHT22;2424;49.696;6.630;2022-10-31T18:06:45;16.40;99.90
4820;DHT22;2424;49.696;6.630;2022-10-31T18:12:09;16.30;99.90
4820;DHT22;2424;49.696;6.630;2022-10-31T18:17:32;16.30;99.90
4820;DHT22;2424;49.696;6.630;2022-10-31T18:22:54;16.40;99.90
4820;DHT22;2424;49.696;6.630;2022-10-31T18:28:16;16.20;99.90
4820;DHT22;2424;49.696;6.630;2022-10-31T18:33:39;16.10;99.90
4820;DHT22;2424;49.696;6.630;2022-10-31T18:39:02;16.30;99.90
4820;DHT22;2424;49.696;6.630;2022-10-31T18:44:24;16.40;99.90
4820;DHT22;2424;49.696;6.630;2022-10-31T18:49:48;16.40;99.90
4820;DHT22;2424;49.696;6.630;2022-10-31T18:55:10;16.40;99.90
4820;DHT22;2424;49.696;6.630;2022-10-31T19:00:32;16.40;99.90
4820;DHT22;2424;49.696;6.630;2022-10-31T19:05:56;16.40;99.90
4820;DHT22;2424;49.696;6.630;2022-10-31T19:11:18;16.50;99.90
4820;DHT22;2424;49.696;6.630;2022-10-31T19:16:40;16.60;99.90
4820;DHT22;2424;49.696;6.630;2022-10-31T19:22:03;16.50;99.90
4820;DHT22;2424;49.696;6.630;2022-10-31T19:27:25;16.60;99.90
4820;DHT22;2424;49.696;6.630;2022-10-31T19:32:47;16.60;99.90
4820;DHT22;2424;49.696;6.630;2022-10-31T19:38:11;16.60;99.90
4820;DHT22;2424;49.696;6.630;2022-10-31T19:43:33;16.60;99.90
4820;DHT22;2424;49.696;6.630;2022-10-31T19:48:55;16.60;99.90
4820;DHT22;2424;49.696;6.630;2022-10-31T19:54:18;16.40;99.90
4820;DHT22;2424;49.696;6.630;2022-10-31T19:59:40;16.40;99.90
4820;DHT22;2424;49.696;6.630;2022-10-31T20:05:02;16.40;99.90
4820;DHT22;2424;49.696;6.630;2022-10-31T20:10:26;16.40;99.90
4820;DHT22;2424;49.696;6.630;2022-10-31T20:15:48;16.40;99.90
4820;DHT22;2424;49.696;6.630;2022-10-31T20:21:11;16.30;99.90
4820;DHT22;2424;49.696;6.630;2022-10-31T20:26:36;16.20;99.90
4820;DHT22;2424;49.696;6.630;2022-10-31T20:31:58;16.40;99.90
4820;DHT22;2424;49.696;6.630;2022-10-31T20:37:20;16.20;99.90
4820;DHT22;2424;49.696;6.630;2022-10-31T20:42:43;16.20;99.90
4820;DHT22;2424;49.696;6.630;2022-10-31T20:48:06;16.20;99.90
4820;DHT22;2424;49.696;6.630;2022-10-31T20:53:29;16.40;99.90
4820;DHT22;2424;49.696;6.630;2022-10-31T20:58:53;16.50;99.90
4820;DHT22;2424;49.696;6.630;2022-10-31T21:04:15;16.40;99.90
4820;DHT22;2424;49.696;6.630;2022-10-31T21:09:37;16.50;99.90
4820;DHT22;2424;49.696;6.630;2022-10-31T21:15:01;16.70;99.90
4820;DHT22;2424;49.696;6.630;2022-10-31T21:20:23;16.70;99.90
4820;DHT22;2424;49.696;6.630;2022-10-31T21:25:45;16.50;99.90
4820;DHT22;2424;49.696;6.630;2022-10-31T21:31:10;16.70;99.90
4820;DHT22;2424;49.696;6.630;2022-10-31T21:36:33;16.90;99.90
4820;DHT22;2424;49.696;6.630;2022-10-31T21:41:55;17.00;99.90
4820;DHT22;2424;49.696;6.630;2022-10-31T21:47:18;17.10;99.90
4820;DHT22;2424;49.696;6.630;2022-10-31T21:52:41;17.00;99.90
4820;DHT22;2424;49.696;6.630;2022-10-31T21:58:04;16.90;99.90
4820;DHT22;2424;49.696;6.630;2022-10-31T22:03:28;16.90;99.90
4820;DHT22;2424;49.696;6.630;2022-10-31T22:08:49;16.90;99.90
4820;DHT22;2424;49.696;6.630;2022-10-31T22:14:14;16.80;99.90
4820;DHT22;2424;49.696;6.630;2022-10-31T22:19:37;16.80;99.90
4820;DHT22;2424;49.696;6.630;2022-10-31T22:24:59;16.80;99.90
4820;DHT22;2424;49.696;6.630;2022-10-31T22:30:21;16.70;99.90
4820;DHT22;2424;49.696;6.630;2022-10-31T22:35:45;17.10;99.90
4820;DHT22;2424;49.696;6.630;2022-10-31T22:41:08;17.30;99.90
4820;DHT22;2424;49.696;6.630;2022-10-31T22:46:32;17.20;99.90
4820;DHT22;2424;49.696;6.630;2022-10-31T22:51:55;17.10;99.90
4820;DHT22;2424;49.696;6.630;2022-10-31T22:57:19;17.00;99.90
4820;DHT22;2424;49.696;6.630;2022-10-31T23:02:41;16.60;99.90
4820;DHT22;2424;49.696;6.630;2022-10-31T23:08:05;16.40;99.90
4820;DHT22;2424;49.696;6.630;2022-10-31T23:13:27;16.30;99.90
4820;DHT22;2424;49.696;6.630;2022-10-31T23:19:07;16.20;99.90
4820;DHT22;2424;49.696;6.630;2022-10-31T23:24:40;16.20;99.90
4820;DHT22;2424;49.696;6.630;2022-10-31T23:30:02;16.10;99.90
4820;DHT22;2424;49.696;6.630;2022-10-31T23:35:25;16.00;99.90
4820;DHT22;2424;49.696;6.630;2022-10-31T23:40:48;15.90;99.90
4820;DHT22;2424;49.696;6.630;2022-10-31T23:46:10;15.90;99.90
4820;DHT22;2424;49.696;6.630;2022-10-31T23:51:34;15.90;99.90
4820;DHT22;2424;49.696;6.630;2022-10-31T23:57:00;15.80;99.90
